sensor_id;sensor_type;location;lat;lon;timestamp;pressure;altitude;pressure_sealevel;temperature;humidity
64544;BME280;50936;51.660;5.616;2023-04-29T00:01:24;101077.16;;;9.47;100.00
64544;BME280;50936;51.660;5.616;2023-04-29T00:03:52;101080.72;;;9.48;100.00
64544;BME280;50936;51.660;5.616;2023-04-29T00:06:19;101082.91;;;9.41;100.00
64544;BME280;50936;51.660;5.616;2023-04-29T00:08:47;101085.59;;;9.41;100.00
64544;BME280;50936;51.660;5.616;2023-04-29T00:11:14;101085.81;;;9.38;100.00
64544;BME280;50936;51.660;5.616;2023-04-29T00:13:41;101086.84;;;9.35;100.00
64544;BME280;50936;51.660;5.616;2023-04-29T00:16:08;101089.63;;;9.34;100.00
64544;BME280;50936;51.660;5.616;2023-04-29T00:18:36;101096.09;;;9.31;100.00
64544;BME280;50936;51.660;5.616;2023-04-29T00:21:03;101091.75;;;9.29;100.00
64544;BME280;50936;51.660;5.616;2023-04-29T00:23:34;101091.75;;;9.29;100.00
64544;BME280;50936;51.660;5.616;2023-04-29T00:26:01;101102.72;;;9.25;100.00
64544;BME280;50936;51.660;5.616;2023-04-29T00:28:28;101091.75;;;9.29;100.00
64544;BME280;50936;51.660;5.616;2023-04-29T00:30:55;101100.78;;;9.28;100.00
64544;BME280;50936;51.660;5.616;2023-04-29T00:33:22;101100.78;;;9.28;100.00
64544;BME280;50936;51.660;5.616;2023-04-29T00:35:49;101103.31;;;9.31;100.00
64544;BME280;50936;51.660;5.616;2023-04-29T00:38:16;101103.09;;;9.34;100.00
64544;BME280;50936;51.660;5.616;2023-04-29T00:40:44;101107.72;;;9.32;100.00
64544;BME280;50936;51.660;5.616;2023-04-29T00:43:12;101114.19;;;9.29;100.00
64544;BME280;50936;51.660;5.616;2023-04-29T00:45:38;101109.66;;;9.30;100.00
64544;BME280;50936;51.660;5.616;2023-04-29T00:48:06;101107.94;;;9.29;100.00
64544;BME280;50936;51.660;5.616;2023-04-29T00:50:33;101112.25;;;9.31;100.00
64544;BME280;50936;51.660;5.616;2023-04-29T00:53:02;101115.03;;;9.30;100.00
64544;BME280;50936;51.660;5.616;2023-04-29T00:55:32;101107.94;;;9.29;100.00
64544;BME280;50936;51.660;5.616;2023-04-29T00:57:59;101121.41;;;9.29;100.00
64544;BME280;50936;51.660;5.616;2023-04-29T01:00:29;101116.00;;;9.29;100.00
64544;BME280;50936;51.660;5.616;2023-04-29T01:02:57;101117.81;;;9.28;100.00
64544;BME280;50936;51.660;5.616;2023-04-29T01:05:26;101124.09;;;9.29;100.00
64544;BME280;50936;51.660;5.616;2023-04-29T01:10:53;101125.03;;;9.28;100.00
64544;BME280;50936;51.660;5.616;2023-04-29T01:13:39;101127.56;;;9.31;100.00
64544;BME280;50936;51.660;5.616;2023-04-29T01:16:36;101136.59;;;9.30;100.00
64544;BME280;50936;51.660;5.616;2023-04-29T01:21:49;101148.25;;;9.30;100.00
64544;BME280;50936;51.660;5.616;2023-04-29T01:24:16;101139.38;;;9.28;100.00
64544;BME280;50936;51.660;5.616;2023-04-29T01:26:50;101138.53;;;9.28;100.00
64544;BME280;50936;51.660;5.616;2023-04-29T01:30:01;101147.56;;;9.27;100.00
64544;BME280;50936;51.660;5.616;2023-04-29T01:36:07;101149.69;;;9.21;100.00
64544;BME280;50936;51.660;5.616;2023-04-29T01:44:21;101168.78;;;9.17;100.00
64544;BME280;50936;51.660;5.616;2023-04-29T01:46:51;101159.94;;;9.15;100.00
64544;BME280;50936;51.660;5.616;2023-04-29T01:49:29;101158.19;;;9.14;100.00
64544;BME280;50936;51.660;5.616;2023-04-29T01:51:56;101161.16;;;9.09;100.00
64544;BME280;50936;51.660;5.616;2023-04-29T01:54:23;101163.09;;;9.07;100.00
64544;BME280;50936;51.660;5.616;2023-04-29T01:56:50;101164.81;;;9.08;100.00
64544;BME280;50936;51.660;5.616;2023-04-29T01:59:33;101164.13;;;9.04;100.00
64544;BME280;50936;51.660;5.616;2023-04-29T02:02:13;101162.38;;;9.03;100.00
64544;BME280;50936;51.660;5.616;2023-04-29T02:04:50;101157.88;;;9.04;100.00
64544;BME280;50936;51.660;5.616;2023-04-29T02:07:17;101161.69;;;9.00;100.00
64544;BME280;50936;51.660;5.616;2023-04-29T02:09:45;101167.25;;;8.97;100.00
64544;BME280;50936;51.660;5.616;2023-04-29T02:12:12;101171.78;;;8.96;100.00
64544;BME280;50936;51.660;5.616;2023-04-29T02:14:39;101170.03;;;8.95;100.00
64544;BME280;50936;51.660;5.616;2023-04-29T02:17:07;101172.03;;;8.92;100.00
64544;BME280;50936;51.660;5.616;2023-04-29T02:19:35;101177.34;;;8.93;100.00
64544;BME280;50936;51.660;5.616;2023-04-29T02:22:02;101180.13;;;8.92;100.00
64544;BME280;50936;51.660;5.616;2023-04-29T02:24:29;101190.13;;;8.90;100.00
64544;BME280;50936;51.660;5.616;2023-04-29T02:26:56;101187.41;;;8.90;100.00
64544;BME280;50936;51.660;5.616;2023-04-29T02:29:24;101187.25;;;8.93;100.00
64544;BME280;50936;51.660;5.616;2023-04-29T02:31:53;101195.25;;;8.94;100.00
64544;BME280;50936;51.660;5.616;2023-04-29T02:34:20;101189.94;;;8.93;100.00
64544;BME280;50936;51.660;5.616;2023-04-29T02:36:47;101194.19;;;8.97;100.00
64544;BME280;50936;51.660;5.616;2023-04-29T02:39:14;101199.59;;;8.97;100.00
64544;BME280;50936;51.660;5.616;2023-04-29T02:41:42;101194.19;;;8.97;100.00
64544;BME280;50936;51.660;5.616;2023-04-29T02:44:10;101202.28;;;8.97;100.00
64544;BME280;50936;51.660;5.616;2023-04-29T02:46:37;101217.50;;;8.98;100.00
64544;BME280;50936;51.660;5.616;2023-04-29T02:49:06;101212.13;;;8.98;100.00
64544;BME280;50936;51.660;5.616;2023-04-29T02:51:33;101212.97;;;8.98;100.00
64544;BME280;50936;51.660;5.616;2023-04-29T02:54:00;101220.97;;;9.00;100.00
64544;BME280;50936;51.660;5.616;2023-04-29T02:56:27;101220.19;;;8.98;100.00
64544;BME280;50936;51.660;5.616;2023-04-29T02:58:55;101222.88;;;8.98;100.00
64544;BME280;50936;51.660;5.616;2023-04-29T03:01:22;101227.38;;;8.97;100.00
64544;BME280;50936;51.660;5.616;2023-04-29T03:03:49;101228.44;;;8.95;100.00
64544;BME280;50936;51.660;5.616;2023-04-29T03:06:17;101237.47;;;8.94;100.00
64544;BME280;50936;51.660;5.616;2023-04-29T03:08:43;101241.13;;;8.93;100.00
64544;BME280;50936;51.660;5.616;2023-04-29T03:11:10;101232.28;;;8.91;100.00
64544;BME280;50936;51.660;5.616;2023-04-29T03:13:37;101237.81;;;8.88;100.00
64544;BME280;50936;51.660;5.616;2023-04-29T03:16:06;101235.19;;;8.86;100.00
64544;BME280;50936;51.660;5.616;2023-04-29T03:18:33;101235.28;;;8.84;100.00
64544;BME280;50936;51.660;5.616;2023-04-29T03:21:00;101239.91;;;8.82;100.00
64544;BME280;50936;51.660;5.616;2023-04-29T03:23:29;101244.25;;;8.85;100.00
64544;BME280;50936;51.660;5.616;2023-04-29T03:25:58;101245.13;;;8.85;100.00
64544;BME280;50936;51.660;5.616;2023-04-29T03:28:26;101249.72;;;8.83;100.00
64544;BME280;50936;51.660;5.616;2023-04-29T03:30:53;101245.28;;;8.82;100.00
64544;BME280;50936;51.660;5.616;2023-04-29T03:33:19;101242.50;;;8.84;100.00
64544;BME280;50936;51.660;5.616;2023-04-29T03:35:47;101245.28;;;8.82;100.00
64544;BME280;50936;51.660;5.616;2023-04-29T03:38:14;101249.81;;;8.82;100.00
64544;BME280;50936;51.660;5.616;2023-04-29T03:40:41;101253.44;;;8.81;100.00
64544;BME280;50936;51.660;5.616;2023-04-29T03:43:09;101245.47;;;8.79;100.00
64544;BME280;50936;51.660;5.616;2023-04-29T03:45:35;101249.09;;;8.78;100.00
64544;BME280;50936;51.660;5.616;2023-04-29T03:48:05;101254.41;;;8.80;100.00
64544;BME280;50936;51.660;5.616;2023-04-29T03:50:33;101252.59;;;8.80;100.00
64544;BME280;50936;51.660;5.616;2023-04-29T03:53:01;101261.63;;;8.79;100.00
64544;BME280;50936;51.660;5.616;2023-04-29T03:55:29;101255.44;;;8.77;100.00
64544;BME280;50936;51.660;5.616;2023-04-29T03:57:56;101258.13;;;8.77;100.00
64544;BME280;50936;51.660;5.616;2023-04-29T04:00:23;101257.03;;;8.81;100.00
64544;BME280;50936;51.660;5.616;2023-04-29T04:02:54;101260.66;;;8.80;100.00
64544;BME280;50936;51.660;5.616;2023-04-29T04:05:21;101268.75;;;8.80;100.00
64544;BME280;50936;51.660;5.616;2023-04-29T04:07:56;101266.81;;;8.82;100.00
64544;BME280;50936;51.660;5.616;2023-04-29T04:10:26;101278.50;;;8.83;100.00
64544;BME280;50936;51.660;5.616;2023-04-29T04:12:54;101275.88;;;8.81;100.00
64544;BME280;50936;51.660;5.616;2023-04-29T04:15:22;101284.91;;;8.80;100.00
64544;BME280;50936;51.660;5.616;2023-04-29T04:17:49;101282.22;;;8.80;100.00
64544;BME280;50936;51.660;5.616;2023-04-29T04:20:16;101275.88;;;8.81;100.00
64544;BME280;50936;51.660;5.616;2023-04-29T04:22:43;101278.56;;;8.81;100.00
64544;BME280;50936;51.660;5.616;2023-04-29T04:25:22;101285.06;;;8.77;100.00
64544;BME280;50936;51.660;5.616;2023-04-29T04:27:50;101284.03;;;8.80;100.00
64544;BME280;50936;51.660;5.616;2023-04-29T04:30:46;101279.34;;;8.83;100.00
64544;BME280;50936;51.660;5.616;2023-04-29T04:33:13;101291.00;;;8.84;100.00
64544;BME280;50936;51.660;5.616;2023-04-29T04:35:42;101291.84;;;8.84;100.00
64544;BME280;50936;51.660;5.616;2023-04-29T04:38:10;101297.16;;;8.86;100.00
64544;BME280;50936;51.660;5.616;2023-04-29T04:40:41;101297.25;;;8.84;100.00
64544;BME280;50936;51.660;5.616;2023-04-29T04:43:23;101303.44;;;8.86;100.00
64544;BME280;50936;51.660;5.616;2023-04-29T04:45:50;101302.63;;;8.84;100.00
64544;BME280;50936;51.660;5.616;2023-04-29T04:48:18;101303.59;;;8.83;100.00
64544;BME280;50936;51.660;5.616;2023-04-29T04:50:48;101313.25;;;8.88;100.00
64544;BME280;50936;51.660;5.616;2023-04-29T04:53:15;101320.19;;;8.92;100.00
64544;BME280;50936;51.660;5.616;2023-04-29T04:55:59;101323.66;;;8.94;100.00
64544;BME280;50936;51.660;5.616;2023-04-29T04:58:29;101328.03;;;8.96;100.00
64544;BME280;50936;51.660;5.616;2023-04-29T05:00:58;101331.59;;;8.97;100.00
64544;BME280;50936;51.660;5.616;2023-04-29T05:03:26;101338.81;;;8.96;100.00
64544;BME280;50936;51.660;5.616;2023-04-29T05:05:54;101336.91;;;8.98;100.00
64544;BME280;50936;51.660;5.616;2023-04-29T05:08:26;101334.28;;;8.97;100.00
64544;BME280;50936;51.660;5.616;2023-04-29T05:10:56;101348.53;;;8.99;100.00
64544;BME280;50936;51.660;5.616;2023-04-29T05:13:24;101348.53;;;8.99;100.00
64544;BME280;50936;51.660;5.616;2023-04-29T05:15:51;101344.91;;;9.00;100.00
64544;BME280;50936;51.660;5.616;2023-04-29T05:18:22;101353.94;;;8.99;100.00
64544;BME280;50936;51.660;5.616;2023-04-29T05:20:50;101352.00;;;9.01;100.00
64544;BME280;50936;51.660;5.616;2023-04-29T05:23:17;101355.53;;;9.03;100.00
64544;BME280;50936;51.660;5.616;2023-04-29T05:25:45;101352.63;;;9.06;100.00
64544;BME280;50936;51.660;5.616;2023-04-29T05:28:12;101360.56;;;9.09;100.00
64544;BME280;50936;51.660;5.616;2023-04-29T05:30:40;101362.41;;;9.09;100.00
64544;BME280;50936;51.660;5.616;2023-04-29T05:33:07;101365.94;;;9.09;100.00
64544;BME280;50936;51.660;5.616;2023-04-29T05:35:34;101364.13;;;9.10;100.00
64544;BME280;50936;51.660;5.616;2023-04-29T05:38:02;101366.75;;;9.11;100.00
64544;BME280;50936;51.660;5.616;2023-04-29T05:40:38;101371.19;;;9.12;100.00
64544;BME280;50936;51.660;5.616;2023-04-29T05:43:24;101374.81;;;9.11;100.00
64544;BME280;50936;51.660;5.616;2023-04-29T05:45:51;101374.81;;;9.11;100.00
64544;BME280;50936;51.660;5.616;2023-04-29T05:48:18;101372.81;;;9.15;100.00
64544;BME280;50936;51.660;5.616;2023-04-29T05:50:45;101382.56;;;9.17;100.00
64544;BME280;50936;51.660;5.616;2023-04-29T05:53:14;101384.38;;;9.17;100.00
64544;BME280;50936;51.660;5.616;2023-04-29T05:55:41;101391.63;;;9.16;100.00
64544;BME280;50936;51.660;5.616;2023-04-29T05:58:11;101403.34;;;9.15;100.00
64544;BME280;50936;51.660;5.616;2023-04-29T06:00:38;101405.94;;;9.17;100.00
64544;BME280;50936;51.660;5.616;2023-04-29T06:03:13;101413.97;;;9.18;100.00
64544;BME280;50936;51.660;5.616;2023-04-29T06:05:40;101412.03;;;9.20;100.00
64544;BME280;50936;51.660;5.616;2023-04-29T06:08:34;101419.28;;;9.20;100.00
64544;BME280;50936;51.660;5.616;2023-04-29T06:11:04;101421.97;;;9.20;100.00
64544;BME280;50936;51.660;5.616;2023-04-29T06:13:31;101422.03;;;9.18;100.00
64544;BME280;50936;51.660;5.616;2023-04-29T06:15:59;101423.59;;;9.22;100.00
64544;BME280;50936;51.660;5.616;2023-04-29T06:18:30;101418.06;;;9.25;100.00
64544;BME280;50936;51.660;5.616;2023-04-29T06:20:58;101424.06;;;9.31;100.00
64544;BME280;50936;51.660;5.616;2023-04-29T06:23:24;101423.81;;;9.35;100.00
64544;BME280;50936;51.660;5.616;2023-04-29T06:25:52;101434.16;;;9.43;100.00
64544;BME280;50936;51.660;5.616;2023-04-29T06:28:20;101435.56;;;9.50;100.00
64544;BME280;50936;51.660;5.616;2023-04-29T06:30:48;101428.97;;;9.56;100.00
64544;BME280;50936;51.660;5.616;2023-04-29T06:33:15;101428.44;;;9.65;100.00
64544;BME280;50936;51.660;5.616;2023-04-29T06:35:42;101438.91;;;9.71;100.00
64544;BME280;50936;51.660;5.616;2023-04-29T06:38:38;101444.81;;;9.78;100.00
64544;BME280;50936;51.660;5.616;2023-04-29T06:41:31;101458.91;;;9.83;100.00
64544;BME280;50936;51.660;5.616;2023-04-29T06:44:20;101454.28;;;9.85;100.00
64544;BME280;50936;51.660;5.616;2023-04-29T06:47:18;101463.78;;;9.92;100.00
64544;BME280;50936;51.660;5.616;2023-04-29T06:50:14;101465.00;;;10.02;100.00
64544;BME280;50936;51.660;5.616;2023-04-29T06:52:42;101468.91;;;10.13;100.00
64544;BME280;50936;51.660;5.616;2023-04-29T06:55:09;101473.78;;;10.22;100.00
64544;BME280;50936;51.660;5.616;2023-04-29T06:57:40;101471.75;;;10.26;100.00
64544;BME280;50936;51.660;5.616;2023-04-29T07:00:07;101480.50;;;10.31;100.00
64544;BME280;50936;51.660;5.616;2023-04-29T07:02:34;101478.41;;;10.36;100.00
64544;BME280;50936;51.660;5.616;2023-04-29T07:05:01;101480.66;;;10.44;100.00
64544;BME280;50936;51.660;5.616;2023-04-29T07:07:28;101493.63;;;10.53;100.00
64544;BME280;50936;51.660;5.616;2023-04-29T07:09:56;101495.38;;;10.54;100.00
64544;BME280;50936;51.660;5.616;2023-04-29T07:12:23;101499.78;;;10.55;100.00
64544;BME280;50936;51.660;5.616;2023-04-29T07:14:53;101504.16;;;10.57;100.00
64544;BME280;50936;51.660;5.616;2023-04-29T07:17:20;101500.22;;;10.63;100.00
64544;BME280;50936;51.660;5.616;2023-04-29T07:19:47;101508.16;;;10.66;100.00
64544;BME280;50936;51.660;5.616;2023-04-29T07:22:14;101511.13;;;10.62;100.00
64544;BME280;50936;51.660;5.616;2023-04-29T07:24:41;101511.97;;;10.62;100.00
64544;BME280;50936;51.660;5.616;2023-04-29T07:27:08;101514.69;;;10.62;100.00
64544;BME280;50936;51.660;5.616;2023-04-29T07:29:35;101523.38;;;10.67;100.00
64544;BME280;50936;51.660;5.616;2023-04-29T07:32:02;101521.97;;;10.76;100.00
64544;BME280;50936;51.660;5.616;2023-04-29T07:34:29;101528.84;;;10.82;100.00
64544;BME280;50936;51.660;5.616;2023-04-29T07:36:56;101529.53;;;10.85;100.00
64544;BME280;50936;51.660;5.616;2023-04-29T07:39:23;101533.00;;;10.87;100.00
64544;BME280;50936;51.660;5.616;2023-04-29T07:41:54;101531.00;;;10.91;100.00
64544;BME280;50936;51.660;5.616;2023-04-29T07:44:21;101541.63;;;10.94;100.00
64544;BME280;50936;51.660;5.616;2023-04-29T07:46:48;101540.09;;;11.04;100.00
64544;BME280;50936;51.660;5.616;2023-04-29T07:49:15;101544.78;;;11.16;100.00
64544;BME280;50936;51.660;5.616;2023-04-29T07:51:42;101543.06;;;11.30;100.00
64544;BME280;50936;51.660;5.616;2023-04-29T07:54:09;101539.41;;;11.45;100.00
64544;BME280;50936;51.660;5.616;2023-04-29T07:56:36;101538.84;;;11.54;100.00
64544;BME280;50936;51.660;5.616;2023-04-29T07:59:03;101537.19;;;11.66;100.00
64544;BME280;50936;51.660;5.616;2023-04-29T08:01:30;101542.50;;;11.82;100.00
64544;BME280;50936;51.660;5.616;2023-04-29T08:03:58;101540.09;;;11.92;100.00
64544;BME280;50936;51.660;5.616;2023-04-29T08:06:26;101540.59;;;11.99;100.00
64544;BME280;50936;51.660;5.616;2023-04-29T08:08:53;101549.19;;;12.05;100.00
64544;BME280;50936;51.660;5.616;2023-04-29T08:11:21;101548.19;;;12.21;100.00
64544;BME280;50936;51.660;5.616;2023-04-29T08:13:49;101550.00;;;12.35;100.00
64544;BME280;50936;51.660;5.616;2023-04-29T08:16:16;101554.59;;;12.47;100.00
64544;BME280;50936;51.660;5.616;2023-04-29T08:18:44;101547.28;;;12.62;100.00
64544;BME280;50936;51.660;5.616;2023-04-29T08:21:11;101555.84;;;12.83;100.00
64544;BME280;50936;51.660;5.616;2023-04-29T08:23:38;101553.25;;;12.94;100.00
64544;BME280;50936;51.660;5.616;2023-04-29T08:26:06;101556.06;;;12.93;100.00
64544;BME280;50936;51.660;5.616;2023-04-29T08:28:33;101551.31;;;12.96;100.00
64544;BME280;50936;51.660;5.616;2023-04-29T08:31:00;101556.31;;;13.02;100.00
64544;BME280;50936;51.660;5.616;2023-04-29T08:33:27;101562.63;;;13.16;100.00
64544;BME280;50936;51.660;5.616;2023-04-29T08:35:58;101567.09;;;13.29;100.00
64544;BME280;50936;51.660;5.616;2023-04-29T08:38:25;101570.19;;;13.51;100.00
64544;BME280;50936;51.660;5.616;2023-04-29T08:40:53;101565.97;;;13.72;100.00
64544;BME280;50936;51.660;5.616;2023-04-29T08:43:20;101572.25;;;13.85;100.00
64544;BME280;50936;51.660;5.616;2023-04-29T08:45:48;101578.97;;;13.93;100.00
64544;BME280;50936;51.660;5.616;2023-04-29T08:48:16;101577.47;;;13.89;100.00
64544;BME280;50936;51.660;5.616;2023-04-29T08:50:44;101570.28;;;13.88;100.00
64544;BME280;50936;51.660;5.616;2023-04-29T08:53:12;101582.34;;;13.83;100.00
64544;BME280;50936;51.660;5.616;2023-04-29T08:58:10;101579.63;;;13.83;100.00
64544;BME280;50936;51.660;5.616;2023-04-29T09:00:40;101583.41;;;13.94;100.00
64544;BME280;50936;51.660;5.616;2023-04-29T09:03:28;101587.66;;;13.98;100.00
64544;BME280;50936;51.660;5.616;2023-04-29T09:06:00;101583.09;;;13.98;100.00
64544;BME280;50936;51.660;5.616;2023-04-29T09:08:29;101594.59;;;14.02;100.00
64544;BME280;50936;51.660;5.616;2023-04-29T09:11:01;101589.28;;;14.00;100.00
64544;BME280;50936;51.660;5.616;2023-04-29T09:13:31;101598.06;;;14.04;100.00
64544;BME280;50936;51.660;5.616;2023-04-29T09:15:58;101595.78;;;14.11;100.00
64544;BME280;50936;51.660;5.616;2023-04-29T09:18:45;101596.72;;;14.22;100.00
64544;BME280;50936;51.660;5.616;2023-04-29T09:21:18;101593.19;;;14.46;100.00
64544;BME280;50936;51.660;5.616;2023-04-29T09:23:57;101602.78;;;14.76;100.00
64544;BME280;50936;51.660;5.616;2023-04-29T09:26:42;101609.13;;;15.00;100.00
64544;BME280;50936;51.660;5.616;2023-04-29T09:29:11;101607.41;;;15.11;100.00
64544;BME280;50936;51.660;5.616;2023-04-29T09:31:40;101602.72;;;15.13;100.00
64544;BME280;50936;51.660;5.616;2023-04-29T09:34:08;101610.25;;;15.45;100.00
64544;BME280;50936;51.660;5.616;2023-04-29T09:36:41;101608.63;;;15.89;100.00
64544;BME280;50936;51.660;5.616;2023-04-29T09:39:15;101595.50;;;16.28;100.00
64544;BME280;50936;51.660;5.616;2023-04-29T09:44:22;101603.06;;;16.24;99.59
64544;BME280;50936;51.660;5.616;2023-04-29T09:46:57;101603.44;;;16.31;99.17
64544;BME280;50936;51.660;5.616;2023-04-29T09:49:27;101609.38;;;16.13;96.67
64544;BME280;50936;51.660;5.616;2023-04-29T09:51:57;101606.41;;;16.05;96.68
64544;BME280;50936;51.660;5.616;2023-04-29T09:54:27;101610.13;;;16.04;98.16
64544;BME280;50936;51.660;5.616;2023-04-29T09:56:56;101613.34;;;15.87;95.26
64544;BME280;50936;51.660;5.616;2023-04-29T09:59:25;101610.91;;;15.59;96.96
64544;BME280;50936;51.660;5.616;2023-04-29T10:01:54;101602.53;;;15.27;95.71
64544;BME280;50936;51.660;5.616;2023-04-29T10:04:26;101619.09;;;15.00;97.33
64544;BME280;50936;51.660;5.616;2023-04-29T10:06:54;101615.94;;;14.82;100.00
64544;BME280;50936;51.660;5.616;2023-04-29T10:09:22;101625.59;;;15.46;100.00
64544;BME280;50936;51.660;5.616;2023-04-29T10:11:52;101621.03;;;16.27;97.75
64544;BME280;50936;51.660;5.616;2023-04-29T10:14:21;101623.63;;;17.06;91.91
64544;BME280;50936;51.660;5.616;2023-04-29T10:16:56;101623.50;;;17.28;86.80
64544;BME280;50936;51.660;5.616;2023-04-29T10:20:21;101631.31;;;17.01;83.54
64544;BME280;50936;51.660;5.616;2023-04-29T10:22:48;101636.81;;;16.89;89.84
64544;BME280;50936;51.660;5.616;2023-04-29T10:25:19;101629.56;;;17.00;90.71
64544;BME280;50936;51.660;5.616;2023-04-29T10:27:48;101633.56;;;16.96;89.11
64544;BME280;50936;51.660;5.616;2023-04-29T10:30:19;101631.59;;;16.75;90.36
64544;BME280;50936;51.660;5.616;2023-04-29T10:32:48;101636.09;;;16.53;91.28
64544;BME280;50936;51.660;5.616;2023-04-29T10:35:21;101641.09;;;16.26;89.08
64544;BME280;50936;51.660;5.616;2023-04-29T10:37:52;101641.09;;;15.92;90.63
64544;BME280;50936;51.660;5.616;2023-04-29T10:40:31;101643.50;;;15.72;91.03
64544;BME280;50936;51.660;5.616;2023-04-29T10:43:08;101647.00;;;15.74;94.34
64544;BME280;50936;51.660;5.616;2023-04-29T10:45:34;101643.06;;;15.90;93.75
64544;BME280;50936;51.660;5.616;2023-04-29T10:53:10;101642.19;;;16.01;93.82
64544;BME280;50936;51.660;5.616;2023-04-29T10:55:39;101649.28;;;16.03;91.43
64544;BME280;50936;51.660;5.616;2023-04-29T10:59:03;101645.28;;;15.96;94.14
64544;BME280;50936;51.660;5.616;2023-04-29T11:01:39;101650.25;;;16.02;93.33
64544;BME280;50936;51.660;5.616;2023-04-29T11:04:08;101650.00;;;16.05;91.41
64544;BME280;50936;51.660;5.616;2023-04-29T11:06:41;101656.09;;;16.09;90.09
64544;BME280;50936;51.660;5.616;2023-04-29T11:11:59;101650.50;;;16.10;90.82
64544;BME280;50936;51.660;5.616;2023-04-29T11:14:33;101658.31;;;16.04;87.42
64544;BME280;50936;51.660;5.616;2023-04-29T11:17:08;101661.00;;;15.92;89.88
64544;BME280;50936;51.660;5.616;2023-04-29T11:19:51;101662.59;;;15.84;84.98
64544;BME280;50936;51.660;5.616;2023-04-29T11:27:22;101654.44;;;15.84;90.61
64544;BME280;50936;51.660;5.616;2023-04-29T11:29:54;101651.13;;;16.03;88.79
64544;BME280;50936;51.660;5.616;2023-04-29T11:32:29;101647.91;;;16.20;89.02
64544;BME280;50936;51.660;5.616;2023-04-29T11:35:14;101654.22;;;16.43;87.25
64544;BME280;50936;51.660;5.616;2023-04-29T11:37:44;101645.63;;;16.59;86.54
64544;BME280;50936;51.660;5.616;2023-04-29T11:40:12;101648.34;;;16.82;86.03
64544;BME280;50936;51.660;5.616;2023-04-29T11:42:44;101652.16;;;17.02;78.81
64544;BME280;50936;51.660;5.616;2023-04-29T11:45:16;101639.91;;;16.85;79.65
64544;BME280;50936;51.660;5.616;2023-04-29T11:47:45;101658.66;;;16.78;80.75
64544;BME280;50936;51.660;5.616;2023-04-29T11:50:16;101657.75;;;16.78;80.22
64544;BME280;50936;51.660;5.616;2023-04-29T11:52:47;101649.19;;;16.82;80.86
64544;BME280;50936;51.660;5.616;2023-04-29T11:55:15;101660.13;;;16.82;80.04
64544;BME280;50936;51.660;5.616;2023-04-29T11:57:43;101646.59;;;16.81;79.45
64544;BME280;50936;51.660;5.616;2023-04-29T12:00:12;101649.97;;;16.84;79.98
64544;BME280;50936;51.660;5.616;2023-04-29T12:02:44;101650.91;;;17.06;76.70
64544;BME280;50936;51.660;5.616;2023-04-29T12:05:12;101653.78;;;17.25;79.05
64544;BME280;50936;51.660;5.616;2023-04-29T12:07:42;101649.44;;;17.55;79.28
64544;BME280;50936;51.660;5.616;2023-04-29T12:10:09;101654.72;;;17.89;77.25
64544;BME280;50936;51.660;5.616;2023-04-29T12:12:38;101652.66;;;18.33;76.29
64544;BME280;50936;51.660;5.616;2023-04-29T12:15:08;101650.56;;;18.97;74.73
64544;BME280;50936;51.660;5.616;2023-04-29T12:17:36;101660.66;;;19.45;70.52
64544;BME280;50936;51.660;5.616;2023-04-29T12:20:05;101653.88;;;19.59;69.19
64544;BME280;50936;51.660;5.616;2023-04-29T12:22:35;101661.38;;;19.67;64.32
64544;BME280;50936;51.660;5.616;2023-04-29T12:25:03;101656.03;;;19.65;63.23
64544;BME280;50936;51.660;5.616;2023-04-29T12:27:31;101655.06;;;19.56;65.98
64544;BME280;50936;51.660;5.616;2023-04-29T12:30:05;101651.16;;;19.49;66.63
64544;BME280;50936;51.660;5.616;2023-04-29T12:32:34;101660.09;;;19.22;62.77
64544;BME280;50936;51.660;5.616;2023-04-29T12:35:05;101663.22;;;18.88;62.64
64544;BME280;50936;51.660;5.616;2023-04-29T12:37:41;101654.47;;;18.54;64.67
64544;BME280;50936;51.660;5.616;2023-04-29T12:40:13;101669.06;;;18.33;65.76
64544;BME280;50936;51.660;5.616;2023-04-29T12:42:42;101657.16;;;18.13;66.51
64544;BME280;50936;51.660;5.616;2023-04-29T12:47:55;101668.31;;;18.00;63.42
64544;BME280;50936;51.660;5.616;2023-04-29T12:50:30;101665.84;;;17.76;64.03
64544;BME280;50936;51.660;5.616;2023-04-29T12:53:03;101669.19;;;17.59;63.70
64544;BME280;50936;51.660;5.616;2023-04-29T12:55:33;101661.09;;;17.57;66.94
64544;BME280;50936;51.660;5.616;2023-04-29T12:58:02;101670.09;;;17.69;67.38
64544;BME280;50936;51.660;5.616;2023-04-29T13:00:30;101662.41;;;17.84;67.54
64544;BME280;50936;51.660;5.616;2023-04-29T13:02:58;101661.97;;;18.00;68.45
64544;BME280;50936;51.660;5.616;2023-04-29T13:05:25;101659.75;;;18.15;68.37
64544;BME280;50936;51.660;5.616;2023-04-29T13:07:52;101669.03;;;18.23;64.10
64544;BME280;50936;51.660;5.616;2023-04-29T13:10:18;101674.44;;;18.14;63.88
64544;BME280;50936;51.660;5.616;2023-04-29T13:12:45;101670.38;;;18.08;65.58
64544;BME280;50936;51.660;5.616;2023-04-29T13:15:13;101671.28;;;18.18;65.49
64544;BME280;50936;51.660;5.616;2023-04-29T13:17:41;101667.09;;;18.45;67.15
64544;BME280;50936;51.660;5.616;2023-04-29T13:20:08;101674.13;;;18.78;67.53
64544;BME280;50936;51.660;5.616;2023-04-29T13:22:37;101668.41;;;19.01;66.48
64544;BME280;50936;51.660;5.616;2023-04-29T13:25:04;101670.31;;;19.10;65.77
64544;BME280;50936;51.660;5.616;2023-04-29T13:27:31;101666.97;;;19.07;65.08
64544;BME280;50936;51.660;5.616;2023-04-29T13:29:58;101672.47;;;18.97;64.00
64544;BME280;50936;51.660;5.616;2023-04-29T13:32:25;101672.84;;;18.82;65.03
64544;BME280;50936;51.660;5.616;2023-04-29T13:35:07;101677.22;;;18.64;63.79
64544;BME280;50936;51.660;5.616;2023-04-29T13:37:34;101671.84;;;18.43;63.95
64544;BME280;50936;51.660;5.616;2023-04-29T13:40:01;101677.72;;;18.38;64.51